Edgefield, SC

5:14 PM EST on November 23, 2014 (GMT -0500)
Daniel | Change Station
CLOSE
Current Station
Airport
Location: Augusta,
Elevation: 420 ft
Nearby Weather Stations

Elev 420 ft 33.47 °N, 82.04 °W | Updated 3 minutes ago

Rain
Rain
65 °F
Feels Like 65 °F
N
13
Wind Variable Wind from SE
Gusts 21 mph

Today
High -- | Low -- °F
--% Chance of Precip.
Yesterday
High -- | Low -- °F
Precip. -- in
7:07 AM 5:20 PM
New Moon, 2% visible
Pressure 29.80 in
Visibility 1.8 miles
Clouds Overcast 200 ft
Dew Point 63 °F
Humidity 93%
Rainfall 1.15 in
Snow Depth Not available.
UV 0 out of 12
Pollen .30 out of 12
Air Quality Not available.
Flu Activity Not available.
SPECI KDNL 232211Z AUTO 13011G18KT 1 3/4SM +TSRA BR OVC002 18/17 A2980 RMK AO2 LTG DSNT E-S TSB2156 P0018 T01830172

More Conditions Fewer Conditions

Pressure 29.80 in
Visibility 1.8 miles
Clouds Overcast 200 ft
Dew Point 63 °F
Humidity 93%
Rainfall 1.15 in
Snow Depth Not available.
UV 0 out of 12
Pollen .30 out of 12
Air Quality Not available.
Flu Activity Not available.
SPECI KDNL 232211Z AUTO 13011G18KT 1 3/4SM +TSRA BR OVC002 18/17 A2980 RMK AO2 LTG DSNT E-S TSB2156 P0018 T01830172

More Conditions Fewer Conditions

10-Day Weather Forecast

Almanac

Astronomy

Nov. 23, 2014 Rise Set
Actual Time
Civil Twilight
Nautical Twilight
Astronomical Twilight
Moon
Length of Visible Light
Length of Day
Tomorrow will be .
, % of the Moon is Illuminated

Today's Extremes

State Highs State Lows

Community

WunderPhotos

Upload Photos

1,773,183 photos uploaded!

WunderBlogs® & News

Nearby

Air Quality

  Air Quality AQ Index Pollutant
Not available.

Snow Depth

Station Depth Elevation

Earthquake Activity

City Distance Mag. Time & Date
Minimum magnitude displayed is 2.5.

Coastal Water Temperatures

Place Temperature

Nearby Weather Stations